Saint Thomas, Missouri
Current Conditions -  °F | °C
As of 1:53 PM on Wednesday 28 Jan 2015 (Local Time) from KJEF Reporting Station
Clear Clear  
Wind Chill: 59°   Ceiling: Unl
Heat Index: 59°   Visibility: 10mi
Dew Point: 34°   Wind: 13mph
Humidity: 39%   Direction: 160°SSE
Pressure: 29.93"   Gusts: NA
Location:  38.37°N, 92.22°W
Report Text: KJEF 281953Z 16011KT 10SM CLR 15/01 A2993 RMK AO2 SLP126 T01500011
Loading
Personal Weather Stations






























Interactive Weather Map New forecast layout! Learn more

10-Day Weather Forecast

Advertisements
Track Severe Weather on mobile